College Station, TX (77843)

1:11 AM CDT on October 01, 2014 (GMT -0500)
University Heights | Change Station
CLOSE
Current Station
Personal Weather Station
Location: College Station, TX
Elevation: 99 m
Nearby Weather Stations

Elev 99 m 30.57 °N, 96.33 °W | Updated 1 minute ago

Clear
Clear
23.3 °C
Feels Like 22 °C
N
3.2
Wind Variable Wind from SSW
Gusts 4.8 km/h

Today
High -- | Low -- °C
--% Chance of Precip.
Yesterday
High -- | Low -- °C
Precip. -- mm
7:18 AM 7:10 PM
Waxing Crescent, 44% visible
Pressure 1009 hPa
Visibility 16.1 kilometers
Clouds Clear
Heat Index 22 °C
Dew Point 22 °C
Humidity 92%
Rainfall -25375 mm
Snow Depth Not available.
UV 0 out of 12
Pollen 7.80 out of 12
Air Quality Not available.
Flu Activity Not available.
METAR KCLL 010553Z AUTO 15005KT 10SM CLR 23/22 A2980 RMK AO2 SLP087 T02330217 10283 20233 403220217 58000

More Conditions Fewer Conditions

Pressure 1009 hPa
Visibility 16.1 kilometers
Clouds Clear
Heat Index 22 °C
Dew Point 22 °C
Humidity 92%
Rainfall -25375 mm
Snow Depth Not available.
UV 0 out of 12
Pollen 7.80 out of 12
Air Quality Not available.
Flu Activity Not available.
METAR KCLL 010553Z AUTO 15005KT 10SM CLR 23/22 A2980 RMK AO2 SLP087 T02330217 10283 20233 403220217 58000

More Conditions Fewer Conditions

10-Day Weather Forecast

Almanac

Astronomy

Oct. 01, 2014 Rise Set
Actual Time 7:18 AM CDT 7:10 PM CDT
Civil Twilight 6:54 AM CDT 7:34 PM CDT
Nautical Twilight 6:27 AM CDT 8:02 PM CDT
Astronomical Twilight 5:58 AM CDT 8:30 PM CDT
Moon 2:03 PM CDT 12:01 AM CDT
Length of Visible Light 12h 39m
Length of Day
11h 51m
Tomorrow will be 1m 50s shorter.
Waxing Crescent, 44% of the Moon is Illuminated
Today
Waxing Crescent
Oct 1
First Quarter
Oct 8
Full
Oct 15
Last Quarter
Oct 23
New

Today's Extremes

State Highs State Lows

Community

WunderPhotos

Upload Photos

1,757,877 photos uploaded!

Nearby

Snow Depth

Station Depth Elevation
No new snow has been reported.

Earthquake Activity

City Distance Mag. Time & Date
No recent earthquake activity has been reported nearby.
Minimum magnitude displayed is 2.5.

Coastal Water Temperatures

Place Temperature
No Stations Reporting

Nearby Weather Stations